CheckWX is a tool to help pilots better visualize weather data.  It is not intended as a substitute for an official pre-flight weather briefing.

15:30:03 UTC

KMDW TAF
Chicago Midway International Airport
Chicago, Illinois, USA
KMDW 171459Z 1715/1818 34008KT P6SM FEW040 SCT120 FM172000 05008KT P6SM BKN040 FM172330 10004KT P6SM BKN040 FM181500 16010KT P6SM BKN250

Oct-17@
15:00 UTC

Oct-17 @ 15:00 UTC

Oct-17@
20:00 UTC

Oct-17 @ 20:00 UTC

KMDW 171459Z 1715/1818 34008KT P6SM FEW040 SCT120
Wind
  • 340° at 8 KTS
Cloud Levels
  • Few at 4,000' AGL
  • Scattered at 12,000' AGL

Oct-17@
20:00 UTC

Oct-17 @ 20:00 UTC

Oct-17@
23:30 UTC

Oct-17 @ 23:30 UTC

FM172000 05008KT P6SM BKN040

From

From Standard forecast or significant change

Wind
  • 050° at 8 KTS
Cloud Levels
  • Broken at 4,000' AGL

Oct-17@
23:30 UTC

Oct-17 @ 23:30 UTC

Oct-18@
15:00 UTC

Oct-18 @ 15:00 UTC

FM172330 10004KT P6SM BKN040

From

From Standard forecast or significant change

Wind
  • 100° at 4 KTS
Cloud Levels
  • Broken at 4,000' AGL

Oct-18@
15:00 UTC

Oct-18 @ 15:00 UTC

Oct-18@
18:00 UTC

Oct-18 @ 18:00 UTC

FM181500 16010KT P6SM BKN250

From

From Standard forecast or significant change

Wind
  • 160° at 10 KTS
Cloud Levels
  • Broken at 25,000' AGL